sensor_id;sensor_type;location;lat;lon;timestamp;pressure;altitude;pressure_sealevel;temperature;humidity
35758;BME280;21879;50.110;18.900;2024-01-16T00:05:37;96983.20;;;20.70;47.70
35758;BME280;21879;50.110;18.900;2024-01-16T00:16:06;96995.02;;;20.70;47.44
35758;BME280;21879;50.110;18.900;2024-01-16T00:26:34;97002.51;;;20.69;47.47
35758;BME280;21879;50.110;18.900;2024-01-16T00:37:01;97014.63;;;20.70;47.39
35758;BME280;21879;50.110;18.900;2024-01-16T00:47:29;97014.98;;;20.72;46.94
35758;BME280;21879;50.110;18.900;2024-01-16T00:57:57;97025.52;;;20.73;46.77
35758;BME280;21879;50.110;18.900;2024-01-16T01:08:25;97029.02;;;20.73;46.70
35758;BME280;21879;50.110;18.900;2024-01-16T01:18:53;97038.04;;;20.73;46.66
35758;BME280;21879;50.110;18.900;2024-01-16T01:29:21;97033.64;;;20.73;46.56
35758;BME280;21879;50.110;18.900;2024-01-16T01:39:48;97029.14;;;20.74;46.30
35758;BME280;21879;50.110;18.900;2024-01-16T01:50:16;97035.73;;;20.73;46.20
35758;BME280;21879;50.110;18.900;2024-01-16T02:00:45;97038.13;;;20.72;46.00
35758;BME280;21879;50.110;18.900;2024-01-16T02:11:13;97045.90;;;20.69;45.90
35758;BME280;21879;50.110;18.900;2024-01-16T02:21:46;97053.11;;;20.68;45.70
35758;BME280;21879;50.110;18.900;2024-01-16T02:32:17;97064.16;;;20.71;45.45
35758;BME280;21879;50.110;18.900;2024-01-16T02:42:45;97064.09;;;20.72;45.22
35758;BME280;21879;50.110;18.900;2024-01-16T02:53:13;97069.44;;;20.69;45.39
35758;BME280;21879;50.110;18.900;2024-01-16T03:03:41;97068.01;;;20.64;45.38
35758;BME280;21879;50.110;18.900;2024-01-16T03:14:09;97076.14;;;20.62;45.40
35758;BME280;21879;50.110;18.900;2024-01-16T03:24:36;97080.02;;;20.59;45.00
35758;BME280;21879;50.110;18.900;2024-01-16T03:35:05;97089.49;;;20.56;44.98
35758;BME280;21879;50.110;18.900;2024-01-16T03:45:33;97115.67;;;20.53;44.81
35758;BME280;21879;50.110;18.900;2024-01-16T03:56:01;97139.50;;;20.51;44.46
35758;BME280;21879;50.110;18.900;2024-01-16T04:06:29;97157.02;;;20.50;44.14
35758;BME280;21879;50.110;18.900;2024-01-16T04:16:58;97172.04;;;20.49;43.91
35758;BME280;21879;50.110;18.900;2024-01-16T04:27:26;97186.85;;;20.50;43.75
35758;BME280;21879;50.110;18.900;2024-01-16T04:37:54;97204.14;;;20.50;43.62
35758;BME280;21879;50.110;18.900;2024-01-16T04:48:22;97213.66;;;20.50;43.50
35758;BME280;21879;50.110;18.900;2024-01-16T04:58:50;97225.84;;;20.50;43.44
35758;BME280;21879;50.110;18.900;2024-01-16T05:09:18;97233.89;;;20.51;43.27
35758;BME280;21879;50.110;18.900;2024-01-16T05:19:47;97257.20;;;20.51;43.17
35758;BME280;21879;50.110;18.900;2024-01-16T05:30:15;97287.06;;;20.51;43.05
35758;BME280;21879;50.110;18.900;2024-01-16T05:40:43;97291.59;;;20.52;43.00
35758;BME280;21879;50.110;18.900;2024-01-16T05:51:11;97307.14;;;20.51;42.84
35758;BME280;21879;50.110;18.900;2024-01-16T06:01:39;97315.27;;;20.51;42.82
35758;BME280;21879;50.110;18.900;2024-01-16T06:12:07;97335.62;;;20.51;42.55
35758;BME280;21879;50.110;18.900;2024-01-16T06:22:35;97350.31;;;20.51;42.47
35758;BME280;21879;50.110;18.900;2024-01-16T06:33:03;97372.18;;;20.51;42.39
35758;BME280;21879;50.110;18.900;2024-01-16T06:43:31;97384.70;;;20.51;42.17
35758;BME280;21879;50.110;18.900;2024-01-16T06:53:59;97385.22;;;20.51;42.37
35758;BME280;21879;50.110;18.900;2024-01-16T07:04:27;97409.04;;;20.51;42.26
35758;BME280;21879;50.110;18.900;2024-01-16T07:14:54;97435.05;;;20.56;41.85
35758;BME280;21879;50.110;18.900;2024-01-16T07:25:22;97453.56;;;20.56;41.46
35758;BME280;21879;50.110;18.900;2024-01-16T07:35:50;97469.79;;;20.54;41.41
35758;BME280;21879;50.110;18.900;2024-01-16T07:46:18;97478.32;;;20.53;41.33
35758;BME280;21879;50.110;18.900;2024-01-16T07:56:45;97480.27;;;20.53;41.45
35758;BME280;21879;50.110;18.900;2024-01-16T08:07:14;97492.34;;;20.52;41.17
35758;BME280;21879;50.110;18.900;2024-01-16T08:17:41;97504.57;;;20.51;41.24
35758;BME280;21879;50.110;18.900;2024-01-16T08:28:10;97518.95;;;20.50;40.95
35758;BME280;21879;50.110;18.900;2024-01-16T08:38:37;97539.81;;;20.49;40.93
35758;BME280;21879;50.110;18.900;2024-01-16T08:49:05;97557.30;;;20.49;40.61
35758;BME280;21879;50.110;18.900;2024-01-16T08:59:33;97565.92;;;20.50;40.86
35758;BME280;21879;50.110;18.900;2024-01-16T09:10:01;97572.97;;;20.53;41.39
35758;BME280;21879;50.110;18.900;2024-01-16T09:20:29;97572.47;;;20.68;45.55
35758;BME280;21879;50.110;18.900;2024-01-16T09:30:56;97581.08;;;20.87;47.17
35758;BME280;21879;50.110;18.900;2024-01-16T09:41:24;97586.77;;;20.99;46.98
35758;BME280;21879;50.110;18.900;2024-01-16T09:51:53;97581.79;;;21.04;46.58
35758;BME280;21879;50.110;18.900;2024-01-16T10:02:21;97587.91;;;21.08;46.11
35758;BME280;21879;50.110;18.900;2024-01-16T10:12:51;97595.71;;;21.13;46.14
35758;BME280;21879;50.110;18.900;2024-01-16T10:23:25;97597.20;;;21.17;46.70
35758;BME280;21879;50.110;18.900;2024-01-16T10:33:54;97611.15;;;21.22;46.82
35758;BME280;21879;50.110;18.900;2024-01-16T10:44:22;97626.53;;;21.24;46.26
35758;BME280;21879;50.110;18.900;2024-01-16T10:54:50;97627.98;;;21.26;46.01
35758;BME280;21879;50.110;18.900;2024-01-16T11:05:18;97632.64;;;21.28;45.76
35758;BME280;21879;50.110;18.900;2024-01-16T11:15:50;97639.07;;;21.32;45.56
35758;BME280;21879;50.110;18.900;2024-01-16T11:26:29;97676.20;;;21.38;45.34
35758;BME280;21879;50.110;18.900;2024-01-16T11:37:00;97692.61;;;21.43;45.14
35758;BME280;21879;50.110;18.900;2024-01-16T11:47:28;97699.69;;;21.51;46.60
35758;BME280;21879;50.110;18.900;2024-01-16T11:58:04;97691.30;;;21.59;47.04
35758;BME280;21879;50.110;18.900;2024-01-16T12:08:37;97683.06;;;21.68;47.19
35758;BME280;21879;50.110;18.900;2024-01-16T12:19:08;97683.83;;;21.77;47.07
35758;BME280;21879;50.110;18.900;2024-01-16T12:29:36;97681.13;;;21.86;46.90
35758;BME280;21879;50.110;18.900;2024-01-16T12:40:07;97677.04;;;21.96;46.78
35758;BME280;21879;50.110;18.900;2024-01-16T12:50:35;97682.65;;;22.04;46.61
35758;BME280;21879;50.110;18.900;2024-01-16T13:01:22;97686.88;;;22.09;46.30
35758;BME280;21879;50.110;18.900;2024-01-16T13:12:05;97699.55;;;22.12;46.02
35758;BME280;21879;50.110;18.900;2024-01-16T13:22:33;97708.98;;;22.15;45.77
35758;BME280;21879;50.110;18.900;2024-01-16T13:33:11;97724.46;;;22.16;45.66
35758;BME280;21879;50.110;18.900;2024-01-16T13:43:39;97730.25;;;22.17;45.52
35758;BME280;21879;50.110;18.900;2024-01-16T13:54:07;97746.90;;;22.17;45.40
35758;BME280;21879;50.110;18.900;2024-01-16T14:04:35;97757.70;;;22.17;45.19
35758;BME280;21879;50.110;18.900;2024-01-16T14:15:02;97768.20;;;22.16;45.15
35758;BME280;21879;50.110;18.900;2024-01-16T14:25:36;97791.98;;;22.15;45.14
35758;BME280;21879;50.110;18.900;2024-01-16T14:36:04;97812.34;;;22.15;45.09
35758;BME280;21879;50.110;18.900;2024-01-16T14:46:32;97813.61;;;22.14;44.72
35758;BME280;21879;50.110;18.900;2024-01-16T14:57:00;97819.94;;;22.12;44.82
35758;BME280;21879;50.110;18.900;2024-01-16T15:07:27;97831.77;;;22.10;44.77
35758;BME280;21879;50.110;18.900;2024-01-16T15:17:55;97839.87;;;22.09;44.66
35758;BME280;21879;50.110;18.900;2024-01-16T15:28:23;97851.91;;;22.06;44.68
35758;BME280;21879;50.110;18.900;2024-01-16T15:38:50;97862.38;;;22.03;44.80
35758;BME280;21879;50.110;18.900;2024-01-16T15:49:17;97875.35;;;22.02;44.73
35758;BME280;21879;50.110;18.900;2024-01-16T15:59:45;97900.31;;;22.02;44.81
35758;BME280;21879;50.110;18.900;2024-01-16T16:10:13;97927.39;;;22.04;44.69
35758;BME280;21879;50.110;18.900;2024-01-16T16:20:40;97941.15;;;22.05;44.72
35758;BME280;21879;50.110;18.900;2024-01-16T16:31:08;97941.94;;;22.04;44.62
35758;BME280;21879;50.110;18.900;2024-01-16T16:41:36;97939.50;;;22.03;44.57
35758;BME280;21879;50.110;18.900;2024-01-16T16:52:06;97943.15;;;22.02;44.51
35758;BME280;21879;50.110;18.900;2024-01-16T17:02:34;97938.51;;;22.00;44.46
35758;BME280;21879;50.110;18.900;2024-01-16T17:13:01;97945.63;;;21.97;44.52
35758;BME280;21879;50.110;18.900;2024-01-16T17:23:29;97951.33;;;21.97;44.57
35758;BME280;21879;50.110;18.900;2024-01-16T17:33:57;97952.29;;;21.98;44.57
35758;BME280;21879;50.110;18.900;2024-01-16T17:44:25;97963.59;;;22.01;45.68
35758;BME280;21879;50.110;18.900;2024-01-16T17:54:53;97967.03;;;22.02;46.74
35758;BME280;21879;50.110;18.900;2024-01-16T18:05:21;97972.42;;;22.01;46.34
35758;BME280;21879;50.110;18.900;2024-01-16T18:15:49;97969.45;;;21.98;46.17
35758;BME280;21879;50.110;18.900;2024-01-16T18:26:17;97975.19;;;21.94;46.16
35758;BME280;21879;50.110;18.900;2024-01-16T18:36:48;97986.59;;;21.91;45.96
35758;BME280;21879;50.110;18.900;2024-01-16T18:47:16;97998.31;;;21.87;45.93
35758;BME280;21879;50.110;18.900;2024-01-16T18:57:47;98000.05;;;21.85;45.92
35758;BME280;21879;50.110;18.900;2024-01-16T19:08:15;98006.38;;;21.83;45.87
35758;BME280;21879;50.110;18.900;2024-01-16T19:18:50;98010.23;;;21.81;45.84
35758;BME280;21879;50.110;18.900;2024-01-16T19:29:18;98023.08;;;21.79;45.82
35758;BME280;21879;50.110;18.900;2024-01-16T19:39:46;98031.85;;;21.77;45.79
35758;BME280;21879;50.110;18.900;2024-01-16T19:50:14;98035.10;;;21.77;45.73
35758;BME280;21879;50.110;18.900;2024-01-16T20:00:49;98027.90;;;21.76;45.69
35758;BME280;21879;50.110;18.900;2024-01-16T20:11:25;98018.92;;;21.75;45.60
35758;BME280;21879;50.110;18.900;2024-01-16T20:22:07;98028.67;;;21.74;45.66
35758;BME280;21879;50.110;18.900;2024-01-16T20:32:36;98029.04;;;21.74;45.66
35758;BME280;21879;50.110;18.900;2024-01-16T20:43:06;98028.55;;;21.74;45.55
35758;BME280;21879;50.110;18.900;2024-01-16T20:53:34;98019.31;;;21.75;45.58
35758;BME280;21879;50.110;18.900;2024-01-16T21:04:02;98008.21;;;21.74;45.60
35758;BME280;21879;50.110;18.900;2024-01-16T21:14:30;97999.30;;;21.72;45.48
35758;BME280;21879;50.110;18.900;2024-01-16T21:24:58;98003.92;;;21.72;45.53
35758;BME280;21879;50.110;18.900;2024-01-16T21:35:26;98012.98;;;21.71;45.48
35758;BME280;21879;50.110;18.900;2024-01-16T21:45:54;98007.52;;;21.71;45.36
35758;BME280;21879;50.110;18.900;2024-01-16T21:56:23;98003.94;;;21.72;45.64
35758;BME280;21879;50.110;18.900;2024-01-16T22:06:51;97996.70;;;21.74;46.23
35758;BME280;21879;50.110;18.900;2024-01-16T22:17:20;97991.69;;;21.78;46.66
35758;BME280;21879;50.110;18.900;2024-01-16T22:27:49;97981.36;;;21.81;46.94
35758;BME280;21879;50.110;18.900;2024-01-16T22:38:17;97972.63;;;21.85;47.04
35758;BME280;21879;50.110;18.900;2024-01-16T22:48:45;97961.84;;;21.88;47.12
35758;BME280;21879;50.110;18.900;2024-01-16T22:59:13;97961.84;;;21.90;47.32
35758;BME280;21879;50.110;18.900;2024-01-16T23:09:41;97964.13;;;21.93;47.12
35758;BME280;21879;50.110;18.900;2024-01-16T23:20:11;97954.77;;;21.95;47.25
35758;BME280;21879;50.110;18.900;2024-01-16T23:30:41;97952.67;;;21.97;47.24
35758;BME280;21879;50.110;18.900;2024-01-16T23:41:22;97949.72;;;21.99;47.05
35758;BME280;21879;50.110;18.900;2024-01-16T23:51:51;97939.98;;;21.99;46.81
